createdAt,value
2019-05-18T00:00:28.712Z,24.25
2019-05-18T00:02:56.670Z,24.25
2019-05-18T00:05:24.715Z,24.24
2019-05-18T00:07:53.048Z,24.26
2019-05-18T00:10:21.176Z,24.25
2019-05-18T00:12:49.255Z,24.23
2019-05-18T00:15:17.295Z,24.23
2019-05-18T00:17:45.371Z,24.22
2019-05-18T00:20:13.429Z,24.20
2019-05-18T00:22:41.469Z,24.18
2019-05-18T00:25:09.588Z,24.19
2019-05-18T00:27:37.762Z,24.18
2019-05-18T00:30:06.125Z,24.17
2019-05-18T00:32:34.041Z,24.16
2019-05-18T00:35:02.055Z,24.16
2019-05-18T00:37:30.200Z,24.15
2019-05-18T00:40:00.021Z,24.12
2019-05-18T00:42:28.074Z,24.12
2019-05-18T00:44:56.111Z,24.12
2019-05-18T00:47:24.158Z,24.13
2019-05-18T00:49:52.308Z,24.13
2019-05-18T00:52:20.255Z,24.15
2019-05-18T00:54:48.559Z,24.12
2019-05-18T00:57:16.758Z,24.12
2019-05-18T00:59:44.669Z,24.12
2019-05-18T01:02:12.744Z,24.13
2019-05-18T01:04:40.853Z,24.11
2019-05-18T01:07:08.850Z,24.12
2019-05-18T01:09:37.132Z,24.11
2019-05-18T01:12:05.106Z,24.10
2019-05-18T01:14:33.025Z,24.09
2019-05-18T01:17:00.940Z,24.09
2019-05-18T01:19:28.968Z,24.06
2019-05-18T01:21:56.906Z,24.07
2019-05-18T01:24:24.960Z,24.06
2019-05-18T01:26:53.206Z,24.05
2019-05-18T01:29:21.161Z,24.05
2019-05-18T01:31:49.209Z,24.04
2019-05-18T01:34:55.263Z,24.03
2019-05-18T01:37:23.382Z,24.04
2019-05-18T01:39:51.482Z,24.02
2019-05-18T01:42:19.558Z,24.01
2019-05-18T01:44:47.812Z,24.02
2019-05-18T01:47:15.778Z,24.01
2019-05-18T01:49:43.922Z,21.86
2019-05-18T01:52:12.144Z,24.02
2019-05-18T01:54:40.315Z,24.01
2019-05-18T01:57:08.325Z,24.01
2019-05-18T01:59:36.396Z,24.02
2019-05-18T02:02:04.418Z,24.00
2019-05-18T02:04:32.422Z,23.99
2019-05-18T02:07:19.562Z,23.99
2019-05-18T02:09:47.501Z,23.99
2019-05-18T02:12:15.494Z,23.99
2019-05-18T02:15:02.603Z,23.98
2019-05-18T02:17:49.678Z,23.97
2019-05-18T02:20:17.890Z,23.96
2019-05-18T02:22:45.974Z,23.95
2019-05-18T02:25:13.879Z,23.95
2019-05-18T02:28:00.836Z,23.96
2019-05-18T02:33:15.744Z,23.95
2019-05-18T02:36:02.825Z,23.93
2019-05-18T02:38:30.887Z,23.93
2019-05-18T02:40:58.792Z,23.95
2019-05-18T02:46:00.753Z,23.92
2019-05-18T02:51:02.439Z,23.92
2019-05-18T02:53:30.367Z,23.93
2019-05-18T02:55:58.428Z,23.91
2019-05-18T02:58:26.405Z,23.90
2019-05-18T03:00:54.723Z,23.89
2019-05-18T03:03:23.039Z,23.88
2019-05-18T03:05:51.077Z,23.88
2019-05-18T03:08:18.990Z,23.87
2019-05-18T03:10:46.941Z,23.87
2019-05-18T03:13:15.094Z,23.86
2019-05-18T03:15:43.148Z,23.84
2019-05-18T03:18:11.357Z,23.86
2019-05-18T03:20:39.464Z,23.86
2019-05-18T03:23:07.534Z,23.84
2019-05-18T03:25:35.442Z,23.83
2019-05-18T03:28:03.443Z,23.83
2019-05-18T03:30:31.529Z,23.83
2019-05-18T03:32:59.595Z,23.81
2019-05-18T03:35:27.665Z,23.82
2019-05-18T03:37:56.062Z,23.80
2019-05-18T03:40:24.060Z,23.79
2019-05-18T03:42:51.954Z,23.78
2019-05-18T03:45:20.222Z,23.78
2019-05-18T03:47:48.255Z,23.78
2019-05-18T03:50:16.143Z,23.80
2019-05-18T03:52:44.123Z,23.79
2019-05-18T03:55:12.086Z,23.78
2019-05-18T03:57:40.047Z,23.77
2019-05-18T04:00:08.006Z,23.76
2019-05-18T04:02:36.060Z,23.78
2019-05-18T04:05:04.224Z,23.77
2019-05-18T04:07:32.164Z,23.79
2019-05-18T04:10:00.139Z,23.78
2019-05-18T04:12:28.233Z,23.80
2019-05-18T04:14:56.405Z,23.80
2019-05-18T04:17:24.321Z,23.79
2019-05-18T04:19:52.400Z,23.80
2019-05-18T04:22:20.498Z,23.81
2019-05-18T04:24:48.564Z,23.81
2019-05-18T04:27:16.615Z,23.80
2019-05-18T04:29:44.630Z,23.79
2019-05-18T04:32:12.708Z,23.79
2019-05-18T04:34:40.760Z,23.81
2019-05-18T04:37:08.729Z,23.83
2019-05-18T04:39:36.600Z,23.84
2019-05-18T04:42:05.039Z,23.85
2019-05-18T04:44:32.901Z,23.85
2019-05-18T04:47:00.910Z,23.86
2019-05-18T04:49:29.240Z,23.87
2019-05-18T04:51:57.301Z,23.86
2019-05-18T04:54:25.788Z,23.87
2019-05-18T04:56:53.840Z,23.87
2019-05-18T04:59:21.694Z,23.89
2019-05-18T05:01:49.756Z,23.88
2019-05-18T05:04:17.721Z,23.88
2019-05-18T05:06:45.764Z,23.90
2019-05-18T05:09:13.790Z,23.93
2019-05-18T05:11:41.793Z,23.93
2019-05-18T05:14:09.694Z,23.93
2019-05-18T05:16:37.822Z,23.93
2019-05-18T05:19:08.555Z,23.96
2019-05-18T05:21:35.241Z,23.98
2019-05-18T05:24:03.224Z,23.98
2019-05-18T05:26:31.303Z,24.05
2019-05-18T05:28:59.326Z,24.00
2019-05-18T05:31:27.360Z,24.02
2019-05-18T05:33:55.442Z,24.05
2019-05-18T05:36:23.432Z,24.09
2019-05-18T05:38:51.739Z,24.10
2019-05-18T05:41:19.871Z,24.06
2019-05-18T05:43:47.877Z,24.07
2019-05-18T05:46:16.130Z,24.20
2019-05-18T05:48:43.969Z,24.12
2019-05-18T05:51:11.871Z,24.13
2019-05-18T05:53:39.912Z,24.13
2019-05-18T05:56:07.919Z,24.13
2019-05-18T05:58:36.071Z,24.15
2019-05-18T06:01:03.945Z,24.17
2019-05-18T06:03:31.967Z,24.17
2019-05-18T06:05:59.769Z,24.18
2019-05-18T06:08:28.099Z,24.18
2019-05-18T06:10:56.016Z,24.20
2019-05-18T06:13:24.005Z,24.20
2019-05-18T06:15:51.929Z,24.23
2019-05-18T06:18:20.145Z,24.22
2019-05-18T06:20:51.602Z,24.23
2019-05-18T06:23:17.813Z,24.23
2019-05-18T06:25:45.862Z,24.25
2019-05-18T06:28:16.242Z,24.26
2019-05-18T06:30:44.272Z,24.28
2019-05-18T06:33:12.316Z,24.30
2019-05-18T06:35:40.264Z,24.30
2019-05-18T06:38:08.415Z,24.30
2019-05-18T06:40:36.475Z,24.31
2019-05-18T06:43:04.366Z,24.32
2019-05-18T06:45:32.366Z,24.34
2019-05-18T06:48:00.268Z,24.34
2019-05-18T06:50:29.139Z,24.37
2019-05-18T06:52:57.194Z,24.38
2019-05-18T06:55:25.738Z,24.39
2019-05-18T06:57:56.584Z,24.38
2019-05-18T07:00:23.431Z,24.38
2019-05-18T07:02:51.412Z,24.40
2019-05-18T07:05:19.373Z,24.44
2019-05-18T07:07:47.386Z,24.46
2019-05-18T07:10:15.436Z,24.46
2019-05-18T07:12:43.556Z,24.48
2019-05-18T07:15:11.555Z,24.52
2019-05-18T07:17:39.598Z,24.54
2019-05-18T07:20:07.594Z,24.59
2019-05-18T07:22:35.590Z,24.62
2019-05-18T07:25:03.546Z,24.64
2019-05-18T07:27:31.427Z,24.67
2019-05-18T07:29:59.313Z,24.71
2019-05-18T07:32:27.323Z,24.68
2019-05-18T07:34:55.248Z,24.70
2019-05-18T07:37:23.166Z,24.67
2019-05-18T07:39:51.319Z,24.65
2019-05-18T07:42:19.419Z,24.65
2019-05-18T07:44:47.343Z,24.65
2019-05-18T07:47:15.353Z,24.66
2019-05-18T07:49:43.446Z,24.67
2019-05-18T07:52:11.306Z,24.65
2019-05-18T07:54:39.095Z,24.68
2019-05-18T07:57:07.220Z,24.69
2019-05-18T07:59:35.122Z,24.71
2019-05-18T08:02:03.036Z,24.73
2019-05-18T08:04:31.026Z,24.76
2019-05-18T08:06:58.885Z,24.74
2019-05-18T08:09:26.652Z,24.75
2019-05-18T08:11:54.658Z,24.76
2019-05-18T08:14:22.550Z,24.78
2019-05-18T08:16:50.436Z,24.80
2019-05-18T08:19:18.343Z,24.80
2019-05-18T08:21:53.084Z,24.82
2019-05-18T08:24:15.725Z,24.83
2019-05-18T08:26:43.722Z,24.85
2019-05-18T08:29:11.712Z,24.87
2019-05-18T08:31:39.628Z,24.86
2019-05-18T08:34:07.922Z,24.87
2019-05-18T08:36:35.938Z,24.86
2019-05-18T08:39:05.318Z,24.90
2019-05-18T08:41:33.366Z,24.86
2019-05-18T08:44:01.280Z,24.87
2019-05-18T08:46:29.163Z,24.89
2019-05-18T08:48:57.038Z,24.89
2019-05-18T08:51:24.909Z,24.90
2019-05-18T08:53:52.941Z,24.92
2019-05-18T08:56:21.574Z,24.92
2019-05-18T08:58:49.811Z,24.95
2019-05-18T09:01:17.937Z,24.94
2019-05-18T09:03:46.039Z,24.95
2019-05-18T09:06:14.154Z,24.96
2019-05-18T09:08:41.936Z,24.97
2019-05-18T09:11:09.816Z,24.99
2019-05-18T09:13:38.108Z,25.01
2019-05-18T09:16:06.106Z,25.01
2019-05-18T09:18:34.009Z,25.04
2019-05-18T09:21:02.103Z,25.02
2019-05-18T09:23:30.019Z,25.04
2019-05-18T09:25:57.888Z,25.04
2019-05-18T09:28:25.766Z,25.06
2019-05-18T09:30:53.656Z,25.07
2019-05-18T09:33:21.661Z,25.10
2019-05-18T09:35:49.618Z,25.10
2019-05-18T09:38:17.694Z,25.08
2019-05-18T09:40:45.886Z,25.13
2019-05-18T09:43:13.891Z,25.15
2019-05-18T09:45:41.879Z,25.16
2019-05-18T09:48:09.902Z,25.16
2019-05-18T09:50:37.811Z,25.16
2019-05-18T09:53:05.905Z,25.16
2019-05-18T09:55:34.006Z,25.20
2019-05-18T09:58:02.021Z,25.18
2019-05-18T10:00:37.922Z,25.19
2019-05-18T10:02:59.613Z,25.23
2019-05-18T10:05:27.421Z,25.24
2019-05-18T10:07:55.299Z,25.25
2019-05-18T10:10:23.286Z,25.25
2019-05-18T10:12:51.276Z,25.28
2019-05-18T10:15:19.183Z,25.30
2019-05-18T10:17:47.254Z,25.23
2019-05-18T10:20:15.253Z,25.27
2019-05-18T10:22:55.069Z,25.25
2019-05-18T10:25:12.702Z,25.29
2019-05-18T10:27:40.634Z,25.30
2019-05-18T10:30:08.445Z,25.32
2019-05-18T10:32:36.628Z,25.33
2019-05-18T10:35:04.586Z,25.31
2019-05-18T10:37:32.334Z,25.36
2019-05-18T10:40:00.212Z,25.34
2019-05-18T10:42:27.983Z,25.36
2019-05-18T10:44:55.979Z,25.37
2019-05-18T10:47:23.975Z,25.37
2019-05-18T10:49:51.846Z,25.37
2019-05-18T10:52:19.871Z,25.40
2019-05-18T10:54:47.694Z,25.38
2019-05-18T10:57:15.575Z,25.42
2019-05-18T10:59:43.550Z,25.40
2019-05-18T11:02:11.744Z,25.39
2019-05-18T11:04:39.774Z,25.42
2019-05-18T11:07:08.113Z,25.43
2019-05-18T11:09:35.992Z,25.41
2019-05-18T11:12:03.868Z,25.46
2019-05-18T11:14:31.849Z,25.47
2019-05-18T11:16:59.600Z,25.49
2019-05-18T11:19:27.506Z,25.49
2019-05-18T11:21:55.461Z,25.53
2019-05-18T11:24:23.594Z,25.55
2019-05-18T11:26:51.471Z,25.52
2019-05-18T11:29:23.086Z,25.52
2019-05-18T11:31:49.342Z,25.53
2019-05-18T11:34:17.133Z,25.53
2019-05-18T11:36:45.031Z,25.55
2019-05-18T11:39:13.001Z,25.56
2019-05-18T11:41:41.226Z,25.59
2019-05-18T11:44:10.856Z,25.61
2019-05-18T11:46:38.983Z,25.59
2019-05-18T11:49:06.863Z,25.57
2019-05-18T11:51:34.863Z,25.58
2019-05-18T11:54:02.710Z,25.64
2019-05-18T11:56:30.516Z,25.64
2019-05-18T11:58:58.500Z,25.65
2019-05-18T12:01:26.358Z,25.64
2019-05-18T12:03:54.224Z,25.66
2019-05-18T12:06:22.451Z,25.66
2019-05-18T12:08:50.514Z,25.67
2019-05-18T12:11:18.309Z,25.65
2019-05-18T12:13:46.203Z,25.68
2019-05-18T12:16:17.325Z,25.75
2019-05-18T12:18:43.486Z,25.75
2019-05-18T12:21:11.365Z,25.67
2019-05-18T12:23:39.302Z,25.69
2019-05-18T12:26:07.160Z,25.72
2019-05-18T12:28:35.190Z,25.67
2019-05-18T12:31:03.066Z,25.71
2019-05-18T12:33:31.055Z,25.70
2019-05-18T12:35:59.044Z,25.70
2019-05-18T12:38:26.970Z,25.71
2019-05-18T12:40:55.028Z,25.72
2019-05-18T12:43:23.089Z,25.67
2019-05-18T12:45:51.230Z,25.71
2019-05-18T12:48:19.165Z,25.74
2019-05-18T12:50:47.155Z,25.77
2019-05-18T12:53:17.695Z,25.75
2019-05-18T12:55:44.788Z,25.77
2019-05-18T12:58:12.930Z,25.78
2019-05-18T13:00:41.016Z,25.81
2019-05-18T13:03:09.053Z,25.79
2019-05-18T13:05:37.011Z,25.78
2019-05-18T13:08:05.220Z,25.84
2019-05-18T13:10:33.227Z,25.86
2019-05-18T13:13:01.240Z,25.86
2019-05-18T13:15:29.247Z,25.88
2019-05-18T13:17:57.541Z,25.91
2019-05-18T13:20:25.564Z,25.94
2019-05-18T13:22:53.485Z,25.94
2019-05-18T13:25:21.474Z,25.96
2019-05-18T13:27:49.491Z,25.96
2019-05-18T13:30:19.930Z,25.98
2019-05-18T13:32:47.050Z,25.96
2019-05-18T13:35:15.232Z,26.00
2019-05-18T13:37:43.286Z,26.00
2019-05-18T13:40:11.120Z,25.92
2019-05-18T13:42:39.170Z,25.93
2019-05-18T13:45:07.120Z,25.93
2019-05-18T13:47:35.117Z,25.97
2019-05-18T13:50:02.978Z,25.94
2019-05-18T13:52:31.059Z,25.92
2019-05-18T13:55:03.908Z,25.90
2019-05-18T13:57:28.785Z,25.87
2019-05-18T13:59:56.916Z,25.89
2019-05-18T14:02:24.682Z,25.88
2019-05-18T14:04:52.615Z,25.91
2019-05-18T14:07:20.667Z,25.90
2019-05-18T14:09:48.661Z,25.88
2019-05-18T14:12:16.685Z,25.89
2019-05-18T14:14:44.726Z,25.87
2019-05-18T14:17:12.744Z,25.92
2019-05-18T14:19:40.737Z,25.89
2019-05-18T14:22:08.656Z,25.88
2019-05-18T14:24:36.628Z,25.87
2019-05-18T14:27:04.655Z,25.86
2019-05-18T14:29:32.937Z,25.87
2019-05-18T14:32:00.889Z,25.86
2019-05-18T14:34:28.748Z,25.86
2019-05-18T14:36:56.555Z,25.86
2019-05-18T14:39:24.750Z,25.86
2019-05-18T14:41:53.162Z,25.86
2019-05-18T14:44:21.040Z,25.83
2019-05-18T14:46:49.052Z,25.84
2019-05-18T14:49:17.116Z,25.83
2019-05-18T14:51:45.005Z,25.84
2019-05-18T14:54:13.504Z,25.84
2019-05-18T14:56:41.604Z,25.82
2019-05-18T14:59:09.638Z,25.80
2019-05-18T15:01:37.688Z,25.80
2019-05-18T15:04:05.761Z,25.80
2019-05-18T15:06:33.620Z,25.78
2019-05-18T15:09:01.652Z,25.78
2019-05-18T15:11:29.888Z,25.81
2019-05-18T15:13:57.786Z,25.79
2019-05-18T15:16:25.836Z,25.78
2019-05-18T15:18:53.714Z,25.80
2019-05-18T15:21:21.616Z,25.81
2019-05-18T15:23:49.624Z,25.78
2019-05-18T15:26:17.480Z,25.80
2019-05-18T15:28:45.386Z,25.82
2019-05-18T15:31:13.248Z,25.82
2019-05-18T15:33:41.202Z,25.82
2019-05-18T15:36:08.963Z,25.81
2019-05-18T15:38:36.787Z,25.83
2019-05-18T15:41:04.842Z,25.81
2019-05-18T15:43:32.780Z,25.81
2019-05-18T15:46:00.660Z,25.82
2019-05-18T15:48:28.673Z,25.81
2019-05-18T15:50:59.262Z,25.83
2019-05-18T15:53:26.275Z,25.84
2019-05-18T15:56:05.274Z,25.86
2019-05-18T15:58:23.874Z,25.83
2019-05-18T16:00:51.818Z,25.79
2019-05-18T16:03:19.685Z,25.80
2019-05-18T16:05:47.597Z,25.81
2019-05-18T16:08:15.384Z,25.81
2019-05-18T16:10:43.434Z,25.81
2019-05-18T16:13:11.370Z,25.82
2019-05-18T16:15:39.286Z,25.81
2019-05-18T16:18:07.242Z,25.80
2019-05-18T16:20:35.132Z,25.80
2019-05-18T16:23:03.436Z,25.80
2019-05-18T16:25:31.362Z,25.79
2019-05-18T16:27:59.761Z,25.79
2019-05-18T16:30:27.694Z,25.78
2019-05-18T16:32:55.946Z,25.80
2019-05-18T16:35:23.969Z,25.79
2019-05-18T16:37:51.956Z,25.79
2019-05-18T16:40:19.704Z,25.79
2019-05-18T16:42:48.084Z,25.82
2019-05-18T16:45:16.653Z,25.83
2019-05-18T16:47:44.766Z,25.82
2019-05-18T16:50:12.618Z,25.84
2019-05-18T16:52:41.035Z,25.93
2019-05-18T16:55:09.193Z,25.87
2019-05-18T16:57:37.213Z,25.83
2019-05-18T17:00:05.490Z,25.82
2019-05-18T17:02:33.362Z,25.80
2019-05-18T17:05:01.368Z,25.83
2019-05-18T17:07:29.465Z,25.85
2019-05-18T17:09:57.364Z,25.83
2019-05-18T17:12:25.255Z,25.82
2019-05-18T17:14:53.320Z,25.85
2019-05-18T17:17:21.118Z,25.81
2019-05-18T17:19:48.876Z,25.83
2019-05-18T17:22:16.868Z,25.81
2019-05-18T17:24:44.855Z,25.79
2019-05-18T17:27:12.973Z,25.80
2019-05-18T17:29:40.938Z,25.80
2019-05-18T17:32:08.893Z,25.78
2019-05-18T17:34:36.764Z,25.78
2019-05-18T17:37:04.568Z,25.76
2019-05-18T17:39:32.460Z,25.77
2019-05-18T17:42:00.592Z,25.78
2019-05-18T17:44:28.485Z,25.78
2019-05-18T17:46:56.696Z,25.77
2019-05-18T17:49:27.035Z,25.80
2019-05-18T17:51:54.994Z,25.74
2019-05-18T17:54:22.984Z,25.73
2019-05-18T17:56:50.859Z,25.73
2019-05-18T17:59:18.838Z,25.74
2019-05-18T18:01:46.740Z,25.73
2019-05-18T18:04:14.968Z,25.71
2019-05-18T18:06:42.814Z,25.70
2019-05-18T18:09:10.628Z,25.24
2019-05-18T18:11:38.640Z,25.70
2019-05-18T18:14:06.521Z,25.71
2019-05-18T18:16:34.388Z,25.67
2019-05-18T18:19:02.571Z,25.67
2019-05-18T18:21:30.605Z,25.69
2019-05-18T18:23:58.638Z,25.71
2019-05-18T18:26:26.521Z,25.69
2019-05-18T18:28:54.442Z,25.71
2019-05-18T18:31:22.440Z,25.70
2019-05-18T18:33:50.338Z,25.67
2019-05-18T18:36:18.105Z,25.65
2019-05-18T18:38:46.118Z,25.65
2019-05-18T18:41:14.125Z,25.67
2019-05-18T18:43:42.156Z,25.69
2019-05-18T18:46:09.949Z,25.68
2019-05-18T18:48:37.751Z,25.66
2019-05-18T18:51:05.651Z,25.65
2019-05-18T18:53:33.623Z,25.66
2019-05-18T18:56:02.068Z,25.67
2019-05-18T18:58:29.948Z,25.66
2019-05-18T19:00:57.822Z,25.66
2019-05-18T19:03:25.711Z,25.65
2019-05-18T19:05:53.622Z,25.64
2019-05-18T19:08:21.499Z,25.64
2019-05-18T19:10:49.278Z,25.64
2019-05-18T19:13:17.155Z,25.62
2019-05-18T19:15:45.137Z,25.61
2019-05-18T19:18:12.948Z,25.60
2019-05-18T19:20:40.844Z,25.62
2019-05-18T19:23:08.833Z,25.59
2019-05-18T19:25:36.818Z,25.59
2019-05-18T19:28:04.813Z,25.61
2019-05-18T19:30:32.703Z,25.61
2019-05-18T19:33:00.788Z,25.63
2019-05-18T19:35:28.798Z,25.62
2019-05-18T19:37:56.759Z,25.62
2019-05-18T19:40:24.540Z,25.63
2019-05-18T19:42:52.323Z,25.60
2019-05-18T19:45:20.197Z,25.57
2019-05-18T19:47:48.276Z,25.58
2019-05-18T19:50:16.168Z,25.57
2019-05-18T19:52:44.041Z,25.58
2019-05-18T19:55:11.856Z,25.56
2019-05-18T19:57:39.868Z,25.57
2019-05-18T20:00:07.864Z,25.56
2019-05-18T20:02:36.112Z,25.55
2019-05-18T20:05:07.960Z,25.54
2019-05-18T20:07:34.021Z,25.54
2019-05-18T20:10:01.951Z,25.53
2019-05-18T20:12:30.148Z,25.50
2019-05-18T20:14:58.087Z,25.51
2019-05-18T20:17:26.015Z,25.48
2019-05-18T20:19:53.813Z,25.48
2019-05-18T20:22:21.920Z,25.48
2019-05-18T20:24:49.921Z,25.43
2019-05-18T20:27:17.985Z,25.39
2019-05-18T20:29:46.176Z,25.34
2019-05-18T20:32:14.464Z,25.31
2019-05-18T20:34:42.671Z,25.33
2019-05-18T20:37:10.589Z,25.39
2019-05-18T20:39:38.614Z,25.39
2019-05-18T20:42:06.498Z,25.36
2019-05-18T20:44:34.404Z,25.38
2019-05-18T20:47:02.441Z,25.39
2019-05-18T20:49:30.316Z,25.39
2019-05-18T20:51:58.443Z,25.41
2019-05-18T20:54:26.757Z,25.42
2019-05-18T20:56:54.761Z,25.40
2019-05-18T20:59:22.794Z,25.40
2019-05-18T21:01:50.701Z,25.40
2019-05-18T21:04:18.772Z,25.42
2019-05-18T21:06:46.783Z,25.46
2019-05-18T21:09:14.837Z,25.46
2019-05-18T21:11:44.709Z,25.45
2019-05-18T21:14:12.959Z,25.45
2019-05-18T21:16:41.020Z,25.46
2019-05-18T21:19:09.022Z,25.46
2019-05-18T21:21:37.047Z,25.46
2019-05-18T21:24:05.124Z,25.44
2019-05-18T21:26:33.239Z,25.44
2019-05-18T21:29:01.330Z,25.47
2019-05-18T21:31:29.707Z,25.48
2019-05-18T21:33:57.684Z,25.46
2019-05-18T21:36:25.670Z,25.43
2019-05-18T21:38:53.606Z,25.42
2019-05-18T21:41:21.490Z,25.44
2019-05-18T21:43:49.394Z,25.44
2019-05-18T21:46:17.240Z,25.43
2019-05-18T21:48:45.206Z,25.42
2019-05-18T21:51:13.162Z,25.41
2019-05-18T21:53:41.056Z,25.37
2019-05-18T21:56:08.995Z,25.37
2019-05-18T21:58:36.963Z,25.38
2019-05-18T22:01:05.115Z,25.37
2019-05-18T22:03:33.086Z,25.37
2019-05-18T22:06:01.091Z,25.33
2019-05-18T22:08:29.054Z,25.33
2019-05-18T22:10:56.949Z,25.33
2019-05-18T22:13:26.568Z,25.35
2019-05-18T22:15:54.658Z,25.34
2019-05-18T22:18:24.880Z,25.36
2019-05-18T22:20:52.348Z,25.34
2019-05-18T22:23:20.572Z,25.34
2019-05-18T22:25:48.661Z,25.34
2019-05-18T22:28:16.490Z,25.34
2019-05-18T22:30:44.589Z,25.34
2019-05-18T22:33:12.583Z,25.32
2019-05-18T22:35:40.592Z,25.31
2019-05-18T22:38:08.822Z,25.30
2019-05-18T22:40:36.827Z,25.30
2019-05-18T22:43:04.828Z,25.29
2019-05-18T22:45:32.908Z,25.31
2019-05-18T22:48:01.050Z,25.30
2019-05-18T22:50:29.496Z,25.29
2019-05-18T22:52:57.837Z,25.30
2019-05-18T22:55:25.770Z,25.29
2019-05-18T22:57:53.845Z,25.31
2019-05-18T23:00:22.171Z,25.28
2019-05-18T23:02:50.203Z,25.27
2019-05-18T23:05:18.295Z,25.26
2019-05-18T23:07:46.281Z,25.24
2019-05-18T23:10:14.276Z,25.24
2019-05-18T23:12:42.550Z,25.22
2019-05-18T23:15:10.552Z,25.18
2019-05-18T23:17:38.616Z,25.19
2019-05-18T23:20:06.598Z,25.21
2019-05-18T23:22:34.546Z,25.19
2019-05-18T23:25:02.530Z,25.21
2019-05-18T23:27:30.504Z,25.19
2019-05-18T23:29:58.418Z,25.21
2019-05-18T23:32:26.338Z,25.18
2019-05-18T23:34:54.406Z,25.19
2019-05-18T23:37:22.323Z,25.20
2019-05-18T23:39:50.273Z,25.18
2019-05-18T23:42:18.549Z,25.16
2019-05-18T23:44:46.572Z,25.15
2019-05-18T23:47:14.609Z,25.12
2019-05-18T23:49:42.615Z,25.13
2019-05-18T23:52:10.513Z,24.21
2019-05-18T23:54:38.429Z,25.13
2019-05-18T23:57:06.322Z,25.14
2019-05-18T23:59:34.330Z,25.12
